Skip Navigation Links Skip Navigation Links

Current Weather

Eureka, Nunavut

For information only: do not use for flight planning or navigation.
Latest weather
Observation time Saturday, October 19, 2019 6:00 AM CDT
Local time Saturday, October 19, 2019 6:19 AM CDT
Flight conditions Visual Meteorological Conditions
Winds
Wind direction East (80°)
Wind speed 6 mph
Visibility 15 mi.
Sky condition
Ceiling unlimited
Cloud layer few clouds 1,200 ft.
Cloud layer few clouds 7,000 ft.
Temperature -6°F
Dewpoint -11°F
Altimeter 30.15 in.Hg
Derived measurements
Relative humidity 77%
Wind chill -18°F
Density altitude -4838 ft.
Sea-level pressure 30.16 in.Hg
METAR CWEU 191100Z 08005KT 15SM FEW012 FEW070 M21/M24 A3015 RMK SC1AC1 SC TR AC TR SLP213

Settings

Location code

InnerDrive.Weather 4.0.6770.0 Release CLR 4.0.30319.42000
Copyright ©2018 Inner Drive Technology. All rights reserved. Portions Copyright ©1986-2018 David Braverman.

Find weather

Site navigation


Skip Navigation Links

Place info

Page info

PayPal - The safer, easier way to pay online!

Return home.

Copyright ©2019 Inner Drive Technology. Purveyors of fine, hand-crafted computer software. Page printed 2019-10-19T11:19:27 UTC.